createdAt,value
2022-11-16T00:00:05.839Z,996.647
2022-11-16T00:07:01.432Z,996.674
2022-11-16T00:14:02.165Z,996.674
2022-11-16T00:21:02.284Z,996.611
2022-11-16T00:28:01.935Z,996.611
2022-11-16T00:35:01.919Z,996.523
2022-11-16T00:42:01.820Z,996.523
2022-11-16T00:49:01.594Z,996.428
2022-11-16T00:56:01.593Z,996.428
2022-11-16T01:00:02.176Z,996.395
2022-11-16T01:07:02.194Z,996.395
2022-11-16T01:14:02.034Z,996.388
2022-11-16T01:21:02.207Z,996.388
2022-11-16T01:28:01.463Z,995.928
2022-11-16T01:35:02.048Z,995.928
2022-11-16T01:42:01.782Z,996.295
2022-11-16T01:49:01.710Z,996.412
2022-11-16T01:56:01.722Z,996.412
2022-11-16T02:00:02.313Z,996.412
2022-11-16T02:07:02.067Z,996.377
2022-11-16T02:14:01.803Z,996.098
2022-11-16T02:21:01.907Z,996.098
2022-11-16T02:28:01.795Z,996.125
2022-11-16T02:35:01.508Z,996.125
2022-11-16T02:42:01.880Z,996
2022-11-16T02:49:02.107Z,996
2022-11-16T02:56:02.107Z,995.859
2022-11-16T03:00:01.664Z,995.859
2022-11-16T03:07:01.738Z,995.727
2022-11-16T03:14:02.041Z,995.727
2022-11-16T03:21:01.935Z,995.56
2022-11-16T03:28:01.912Z,995.56
2022-11-16T03:35:02.648Z,995.723
2022-11-16T03:42:01.456Z,995.723
2022-11-16T03:49:02.052Z,995.993
2022-11-16T03:56:02.293Z,995.993
2022-11-16T04:00:01.842Z,996.129
2022-11-16T04:07:01.700Z,996.129
2022-11-16T04:14:04.138Z,996.185
2022-11-16T04:21:01.365Z,996.185
2022-11-16T04:28:01.702Z,996.225
2022-11-16T04:35:02.455Z,996.385
2022-11-16T04:42:01.875Z,996.385
2022-11-16T04:49:01.591Z,996.341
2022-11-16T04:56:01.529Z,996.341
2022-11-16T05:00:02.125Z,996.341
2022-11-16T05:07:01.405Z,996.38
2022-11-16T05:14:01.627Z,996.411
2022-11-16T05:21:01.506Z,996.411
2022-11-16T05:28:02.291Z,996.535
2022-11-16T05:35:02.492Z,996.535
2022-11-16T05:42:01.855Z,996.597
2022-11-16T05:49:01.381Z,996.597
2022-11-16T05:56:01.702Z,996.586
2022-11-16T06:00:02.503Z,996.586
2022-11-16T06:07:01.620Z,996.796
2022-11-16T06:14:02.161Z,996.796
2022-11-16T06:21:01.712Z,996.937
2022-11-16T06:28:06.637Z,996.937
2022-11-16T06:35:01.788Z,997.129
2022-11-16T06:42:01.421Z,997.129
2022-11-16T06:49:01.826Z,997.296
2022-11-16T06:56:01.639Z,997.296
2022-11-16T07:00:02.250Z,997.459
2022-11-16T07:07:02.012Z,997.459
2022-11-16T07:14:01.782Z,997.551
2022-11-16T07:21:02.207Z,997.551
2022-11-16T07:28:01.633Z,997.713
2022-11-16T07:35:02.257Z,997.839
2022-11-16T07:42:01.970Z,997.839
2022-11-16T07:49:04.025Z,997.993
2022-11-16T07:56:02.047Z,997.993
2022-11-16T08:00:01.637Z,997.993
2022-11-16T08:07:01.501Z,998.178
2022-11-16T08:14:01.453Z,998.12
2022-11-16T08:21:01.730Z,998.12
2022-11-16T08:28:02.280Z,998.378
2022-11-16T08:35:02.529Z,998.378
2022-11-16T08:42:01.781Z,998.504
2022-11-16T08:49:01.897Z,998.504
2022-11-16T08:56:01.978Z,998.639
2022-11-16T09:00:01.523Z,998.639
2022-11-16T09:07:01.435Z,998.768
2022-11-16T09:14:01.988Z,998.768
2022-11-16T09:21:01.983Z,998.791
2022-11-16T09:28:02.239Z,998.791
2022-11-16T09:35:02.434Z,998.795
2022-11-16T09:42:01.581Z,998.795
2022-11-16T09:49:02.024Z,998.94
2022-11-16T09:56:01.990Z,998.94
2022-11-16T10:00:01.547Z,999.012
2022-11-16T10:07:01.878Z,999.012
2022-11-16T10:14:04.147Z,998.948
2022-11-16T10:21:01.380Z,998.948
2022-11-16T10:28:01.820Z,998.868
2022-11-16T10:35:01.762Z,998.811
2022-11-16T10:42:07.106Z,998.811
2022-11-16T10:49:02.283Z,998.595
2022-11-16T10:56:02.135Z,998.595
2022-11-16T11:00:01.687Z,998.595
2022-11-16T11:07:02.124Z,998.485
2022-11-16T11:14:01.502Z,998.392
2022-11-16T11:21:01.744Z,998.392
2022-11-16T11:28:02.129Z,998.29
2022-11-16T11:35:02.110Z,998.29
2022-11-16T11:42:01.692Z,998.195
2022-11-16T11:49:02.014Z,998.195
2022-11-16T11:56:02.029Z,998.004
2022-11-16T12:00:01.612Z,998.004
2022-11-16T12:07:01.881Z,997.901
2022-11-16T12:14:01.828Z,997.901
2022-11-16T12:21:01.455Z,997.776
2022-11-16T12:28:01.633Z,997.776
2022-11-16T12:35:02.631Z,997.564
2022-11-16T12:42:01.788Z,997.564
2022-11-16T12:49:02.007Z,997.571
2022-11-16T12:56:01.494Z,997.571
2022-11-16T13:00:02.039Z,997.346
2022-11-16T13:07:04.221Z,997.346
2022-11-16T13:14:01.701Z,997.294
2022-11-16T13:21:01.826Z,997.294
2022-11-16T13:28:01.568Z,997.122
2022-11-16T13:35:02.426Z,996.886
2022-11-16T13:42:01.541Z,996.886
2022-11-16T13:49:01.670Z,996.899
2022-11-16T13:56:01.359Z,996.899
2022-11-16T14:00:01.937Z,996.899
2022-11-16T14:07:01.991Z,996.745
2022-11-16T14:14:01.908Z,996.666
2022-11-16T14:21:02.170Z,996.666
2022-11-16T14:28:01.618Z,996.699
2022-11-16T14:35:01.995Z,996.699
2022-11-16T14:42:02.047Z,996.661
2022-11-16T14:49:01.579Z,996.661
2022-11-16T14:56:02.044Z,996.552
2022-11-16T15:00:01.573Z,996.552
2022-11-16T15:07:01.792Z,996.344
2022-11-16T15:14:01.297Z,996.344
2022-11-16T15:21:01.748Z,996.503
2022-11-16T15:28:01.361Z,996.503
2022-11-16T15:35:05.372Z,996.371
2022-11-16T15:42:04.033Z,996.371
2022-11-16T15:49:01.809Z,996.257
2022-11-16T15:56:01.857Z,995.982
2022-11-16T16:00:02.566Z,995.982
2022-11-16T16:07:02.169Z,995.982
2022-11-16T16:14:01.518Z,995.872
2022-11-16T16:21:02.258Z,995.872
2022-11-16T16:28:02.187Z,995.813
2022-11-16T16:35:02.289Z,995.789
2022-11-16T16:42:01.297Z,995.789
2022-11-16T16:49:01.721Z,995.644
2022-11-16T16:56:01.998Z,995.644
2022-11-16T17:00:01.631Z,995.644
2022-11-16T17:07:01.538Z,995.543
2022-11-16T17:14:02.080Z,995.495
2022-11-16T17:21:01.375Z,995.495
2022-11-16T17:28:01.726Z,995.43
2022-11-16T17:35:01.636Z,995.43
2022-11-16T17:42:01.483Z,995.312
2022-11-16T17:49:01.590Z,995.312
2022-11-16T17:56:01.335Z,995.187
2022-11-16T18:00:01.928Z,995.187
2022-11-16T18:07:02.016Z,994.408
2022-11-16T18:14:01.982Z,994.408
2022-11-16T18:21:01.792Z,994.728
2022-11-16T18:28:01.440Z,994.728
2022-11-16T18:35:02.280Z,994.593
2022-11-16T18:42:02.236Z,994.593
2022-11-16T18:49:01.687Z,994.681
2022-11-16T18:56:01.717Z,994.957
2022-11-16T19:00:02.291Z,994.957
2022-11-16T19:07:01.673Z,994.957
2022-11-16T19:14:01.795Z,994.728
2022-11-16T19:21:01.485Z,994.728
2022-11-16T19:28:01.637Z,994.68
2022-11-16T19:35:01.858Z,994.477
2022-11-16T19:42:02.187Z,994.477
2022-11-16T19:49:01.802Z,994.294
2022-11-16T19:56:01.385Z,994.294
2022-11-16T20:00:01.924Z,994.195
2022-11-16T20:07:01.735Z,994.195
2022-11-16T20:14:02.232Z,993.947
2022-11-16T20:21:01.654Z,993.947
2022-11-16T20:28:01.563Z,993.642
2022-11-16T20:35:01.893Z,993.642
2022-11-16T20:42:01.861Z,993.482
2022-11-16T20:49:01.983Z,993.482
2022-11-16T20:56:02.123Z,993.341
2022-11-16T21:00:01.653Z,993.341
2022-11-16T21:07:01.903Z,993.154
2022-11-16T21:14:02.005Z,993.154
2022-11-16T21:21:01.634Z,992.977
2022-11-16T21:28:01.594Z,992.977
2022-11-16T21:35:01.512Z,992.791
2022-11-16T21:42:01.989Z,992.791
2022-11-16T21:49:01.920Z,992.345
2022-11-16T21:56:02.001Z,991.919
2022-11-16T22:00:01.520Z,991.919
2022-11-16T22:07:01.497Z,991.919
2022-11-16T22:14:01.469Z,991.662
2022-11-16T22:21:01.975Z,991.611
2022-11-16T22:28:20.532Z,991.611
2022-11-16T22:35:01.842Z,991.531
2022-11-16T22:42:01.370Z,991.531
2022-11-16T22:49:01.525Z,991.09
2022-11-16T22:56:02.218Z,991.09
2022-11-16T23:00:01.786Z,990.886
2022-11-16T23:07:01.952Z,990.886
2022-11-16T23:14:01.747Z,990.624
2022-11-16T23:21:02.105Z,990.624
2022-11-16T23:28:01.793Z,990.066
2022-11-16T23:35:01.557Z,990.066
2022-11-16T23:42:01.935Z,989.94
2022-11-16T23:49:02.101Z,989.94
2022-11-16T23:56:05.774Z,989.463
